Houston, Texas
Traffic Map
Current Weather Conditions
Houston, Texas
Scattered Clouds
Scattered Clouds
28°
Feels Like: 30°
Wind Chill: 28° Ceiling: Unl
Heat Index: 30° Visibility: 10mi
Dew Point: 22° Wind: 8mph
Humidity: 71% Direction: 130° (SE)
Pressure: 29.85in Gusts: 0mph
Raw Report DataKIAH 040053Z 13007KT 10SM FEW030 SCT100 SCT250 28/22 A2985 RMK AO2 SLP109 T02780222
Traffic Incident Summary
Active as of:
Severity:
Category:
InformationThere was an issue retrieving the traffic information for this location. Please try a different location or try again shortly.
Advertisements
Track Severe Weather on mobile